sensor_id;sensor_type;location;lat;lon;timestamp;pressure;altitude;pressure_sealevel;temperature;humidity
20696;BME280;10507;52.754;13.040;2023-04-27T00:01:50;101216.50;;;5.71;92.47
20696;BME280;10507;52.754;13.040;2023-04-27T00:04:18;101207.78;;;5.66;92.08
20696;BME280;10507;52.754;13.040;2023-04-27T00:06:47;101198.13;;;5.65;92.64
20696;BME280;10507;52.754;13.040;2023-04-27T00:09:19;101193.56;;;5.70;92.07
20696;BME280;10507;52.754;13.040;2023-04-27T00:11:48;101194.34;;;5.75;92.06
20696;BME280;10507;52.754;13.040;2023-04-27T00:14:16;101184.56;;;5.79;91.53
20696;BME280;10507;52.754;13.040;2023-04-27T00:20:18;101144.03;;;5.74;91.17
20696;BME280;10507;52.754;13.040;2023-04-27T00:22:46;101155.53;;;5.74;91.04
20696;BME280;10507;52.754;13.040;2023-04-27T00:25:24;101139.69;;;5.71;90.82
20696;BME280;10507;52.754;13.040;2023-04-27T00:27:52;101171.31;;;5.79;91.48
20696;BME280;10507;52.754;13.040;2023-04-27T00:30:20;101159.00;;;5.76;91.10
20696;BME280;10507;52.754;13.040;2023-04-27T00:32:48;101166.03;;;5.77;90.79
20696;BME280;10507;52.754;13.040;2023-04-27T00:35:16;101174.72;;;5.84;90.87
20696;BME280;10507;52.754;13.040;2023-04-27T00:37:44;101173.91;;;5.80;90.84
20696;BME280;10507;52.754;13.040;2023-04-27T00:40:13;101195.00;;;5.85;91.27
20696;BME280;10507;52.754;13.040;2023-04-27T00:42:42;101203.91;;;5.82;91.25
20696;BME280;10507;52.754;13.040;2023-04-27T00:45:11;101211.94;;;5.79;91.55
20696;BME280;10507;52.754;13.040;2023-04-27T00:47:43;101217.25;;;5.78;92.22
20696;BME280;10507;52.754;13.040;2023-04-27T00:50:13;101221.72;;;5.76;91.96
20696;BME280;10507;52.754;13.040;2023-04-27T00:52:41;101212.16;;;5.69;91.80
20696;BME280;10507;52.754;13.040;2023-04-27T00:55:13;101227.19;;;5.67;92.55
20696;BME280;10507;52.754;13.040;2023-04-27T00:57:43;101240.53;;;5.62;93.10
20696;BME280;10507;52.754;13.040;2023-04-27T01:00:12;101267.09;;;5.59;93.46
20696;BME280;10507;52.754;13.040;2023-04-27T01:02:40;101253.09;;;5.54;93.45
20696;BME280;10507;52.754;13.040;2023-04-27T01:05:09;101252.31;;;5.47;93.51
20696;BME280;10507;52.754;13.040;2023-04-27T01:07:37;101266.38;;;5.49;93.77
20696;BME280;10507;52.754;13.040;2023-04-27T01:10:06;101273.47;;;5.49;93.63
20696;BME280;10507;52.754;13.040;2023-04-27T01:12:35;101268.22;;;5.46;93.53
20696;BME280;10507;52.754;13.040;2023-04-27T01:15:05;101269.97;;;5.47;93.60
20696;BME280;10507;52.754;13.040;2023-04-27T01:17:33;101269.94;;;5.50;93.68
20696;BME280;10507;52.754;13.040;2023-04-27T01:20:03;101255.84;;;5.46;93.01
20696;BME280;10507;52.754;13.040;2023-04-27T01:22:33;101261.97;;;5.50;92.96
20696;BME280;10507;52.754;13.040;2023-04-27T01:25:03;101245.25;;;5.48;93.29
20696;BME280;10507;52.754;13.040;2023-04-27T01:27:32;101240.78;;;5.50;92.86
20696;BME280;10507;52.754;13.040;2023-04-27T01:30:00;101219.69;;;5.45;92.38
20696;BME280;10507;52.754;13.040;2023-04-27T01:32:29;101243.38;;;5.53;92.40
20696;BME280;10507;52.754;13.040;2023-04-27T01:34:57;101243.38;;;5.53;92.64
20696;BME280;10507;52.754;13.040;2023-04-27T01:37:25;101227.56;;;5.48;92.23
20696;BME280;10507;52.754;13.040;2023-04-27T01:39:53;101226.72;;;5.48;92.15
20696;BME280;10507;52.754;13.040;2023-04-27T01:42:23;101242.53;;;5.51;92.38
20696;BME280;10507;52.754;13.040;2023-04-27T01:44:51;101241.66;;;5.50;92.44
20696;BME280;10507;52.754;13.040;2023-04-27T01:47:20;101227.56;;;5.48;92.04
20696;BME280;10507;52.754;13.040;2023-04-27T01:49:48;101239.88;;;5.51;92.06
20696;BME280;10507;52.754;13.040;2023-04-27T01:52:16;101214.34;;;5.47;91.86
20696;BME280;10507;52.754;13.040;2023-04-27T01:54:45;101216.16;;;5.45;91.93
20696;BME280;10507;52.754;13.040;2023-04-27T01:57:14;101246.09;;;5.50;92.10
20696;BME280;10507;52.754;13.040;2023-04-27T01:59:44;101238.25;;;5.45;91.96
20696;BME280;10507;52.754;13.040;2023-04-27T02:02:12;101232.94;;;5.45;92.28
20696;BME280;10507;52.754;13.040;2023-04-27T02:04:40;101247.06;;;5.44;92.19
20696;BME280;10507;52.754;13.040;2023-04-27T02:07:11;101255.09;;;5.39;92.64
20696;BME280;10507;52.754;13.040;2023-04-27T02:09:39;101254.25;;;5.39;92.37
20696;BME280;10507;52.754;13.040;2023-04-27T02:12:07;101263.13;;;5.35;92.51
20696;BME280;10507;52.754;13.040;2023-04-27T02:14:35;101255.28;;;5.30;92.40
20696;BME280;10507;52.754;13.040;2023-04-27T02:17:05;101255.25;;;5.32;92.53
20696;BME280;10507;52.754;13.040;2023-04-27T02:19:33;101246.41;;;5.31;91.76
20696;BME280;10507;52.754;13.040;2023-04-27T02:22:02;101201.59;;;5.22;91.37
20696;BME280;10507;52.754;13.040;2023-04-27T02:24:30;101190.22;;;5.17;91.67
20696;BME280;10507;52.754;13.040;2023-04-27T02:26:59;101200.88;;;5.14;91.44
20696;BME280;10507;52.754;13.040;2023-04-27T02:29:29;101166.59;;;5.08;91.54
20696;BME280;10507;52.754;13.040;2023-04-27T02:31:59;101184.19;;;5.10;90.91
20696;BME280;10507;52.754;13.040;2023-04-27T02:34:32;101183.31;;;5.08;91.41
20696;BME280;10507;52.754;13.040;2023-04-27T02:37:00;101206.22;;;5.11;91.44
20696;BME280;10507;52.754;13.040;2023-04-27T02:39:28;101210.66;;;5.09;91.91
20696;BME280;10507;52.754;13.040;2023-04-27T02:41:56;101209.84;;;5.07;91.45
20696;BME280;10507;52.754;13.040;2023-04-27T02:44:24;101195.81;;;5.02;91.02
20696;BME280;10507;52.754;13.040;2023-04-27T02:46:52;101201.16;;;5.00;91.52
20696;BME280;10507;52.754;13.040;2023-04-27T02:49:21;101239.84;;;5.06;91.68
20696;BME280;10507;52.754;13.040;2023-04-27T02:51:50;101257.41;;;5.10;91.45
20696;BME280;10507;52.754;13.040;2023-04-27T02:54:18;101259.13;;;5.12;91.47
20696;BME280;10507;52.754;13.040;2023-04-27T02:56:46;101243.22;;;5.14;91.25
20696;BME280;10507;52.754;13.040;2023-04-27T02:59:16;101235.22;;;5.17;90.75
20696;BME280;10507;52.754;13.040;2023-04-27T03:01:44;101232.56;;;5.17;90.83
20696;BME280;10507;52.754;13.040;2023-04-27T03:04:12;101228.16;;;5.17;91.09
20696;BME280;10507;52.754;13.040;2023-04-27T03:06:41;101254.59;;;5.19;91.41
20696;BME280;10507;52.754;13.040;2023-04-27T03:09:10;101241.47;;;5.13;91.33
20696;BME280;10507;52.754;13.040;2023-04-27T03:11:41;101264.34;;;5.15;91.64
20696;BME280;10507;52.754;13.040;2023-04-27T03:14:09;101261.84;;;5.09;91.79
20696;BME280;10507;52.754;13.040;2023-04-27T03:16:38;101296.19;;;5.12;92.45
20696;BME280;10507;52.754;13.040;2023-04-27T03:19:06;101281.25;;;5.08;92.46
20696;BME280;10507;52.754;13.040;2023-04-27T03:21:34;101291.94;;;5.02;92.24
20696;BME280;10507;52.754;13.040;2023-04-27T03:24:03;101337.75;;;5.06;92.52
20696;BME280;10507;52.754;13.040;2023-04-27T03:26:33;101334.28;;;5.02;93.09
20696;BME280;10507;52.754;13.040;2023-04-27T03:29:01;101361.56;;;5.06;93.81
20696;BME280;10507;52.754;13.040;2023-04-27T03:31:29;101365.16;;;5.02;93.78
20696;BME280;10507;52.754;13.040;2023-04-27T03:33:59;101380.97;;;5.08;94.10
20696;BME280;10507;52.754;13.040;2023-04-27T03:36:27;101383.59;;;5.08;93.91
20696;BME280;10507;52.754;13.040;2023-04-27T03:38:57;101381.88;;;5.07;94.19
20696;BME280;10507;52.754;13.040;2023-04-27T03:41:25;101379.31;;;5.00;94.63
20696;BME280;10507;52.754;13.040;2023-04-27T03:43:54;101400.50;;;4.97;94.68
20696;BME280;10507;52.754;13.040;2023-04-27T03:46:23;101419.00;;;5.00;95.12
20696;BME280;10507;52.754;13.040;2023-04-27T03:48:51;101400.50;;;4.97;94.76
20696;BME280;10507;52.754;13.040;2023-04-27T03:51:19;101412.00;;;4.98;94.99
20696;BME280;10507;52.754;13.040;2023-04-27T03:53:47;101411.16;;;4.93;95.50
20696;BME280;10507;52.754;13.040;2023-04-27T03:56:15;101406.84;;;4.89;95.34
20696;BME280;10507;52.754;13.040;2023-04-27T03:58:43;101427.97;;;4.90;95.70
20696;BME280;10507;52.754;13.040;2023-04-27T04:01:15;101409.50;;;4.86;94.92
20696;BME280;10507;52.754;13.040;2023-04-27T04:03:44;101415.66;;;4.86;95.86
20696;BME280;10507;52.754;13.040;2023-04-27T04:06:14;101423.59;;;4.86;95.74
20696;BME280;10507;52.754;13.040;2023-04-27T04:08:42;101428.88;;;4.89;95.50
20696;BME280;10507;52.754;13.040;2023-04-27T04:11:10;101429.69;;;4.93;95.22
20696;BME280;10507;52.754;13.040;2023-04-27T04:13:38;101434.94;;;4.96;95.65
20696;BME280;10507;52.754;13.040;2023-04-27T04:16:08;101432.25;;;5.00;95.38
20696;BME280;10507;52.754;13.040;2023-04-27T04:18:38;101440.09;;;5.07;95.87
20696;BME280;10507;52.754;13.040;2023-04-27T04:21:08;101425.97;;;5.06;95.25
20696;BME280;10507;52.754;13.040;2023-04-27T04:23:36;101437.41;;;5.08;95.36
20696;BME280;10507;52.754;13.040;2023-04-27T04:26:04;101446.09;;;5.18;95.09
20696;BME280;10507;52.754;13.040;2023-04-27T04:28:32;101426.66;;;5.20;95.25
20696;BME280;10507;52.754;13.040;2023-04-27T04:31:00;101439.69;;;5.31;94.77
20696;BME280;10507;52.754;13.040;2023-04-27T04:33:28;101428.16;;;5.37;94.41
20696;BME280;10507;52.754;13.040;2023-04-27T04:35:58;101411.34;;;5.38;93.83
20696;BME280;10507;52.754;13.040;2023-04-27T04:38:26;101407.59;;;5.53;93.30
20696;BME280;10507;52.754;13.040;2023-04-27T04:40:55;101388.97;;;5.57;93.15
20696;BME280;10507;52.754;13.040;2023-04-27T04:43:23;101359.75;;;5.62;92.37
20696;BME280;10507;52.754;13.040;2023-04-27T04:45:52;101350.78;;;5.69;92.03
20696;BME280;10507;52.754;13.040;2023-04-27T04:48:20;101350.66;;;5.77;92.16
20696;BME280;10507;52.754;13.040;2023-04-27T04:50:49;101309.22;;;5.73;91.54
20696;BME280;10507;52.754;13.040;2023-04-27T04:53:19;101333.59;;;5.90;91.50
20696;BME280;10507;52.754;13.040;2023-04-27T04:55:48;101329.97;;;5.97;91.08
20696;BME280;10507;52.754;13.040;2023-04-27T04:58:16;101288.66;;;5.86;91.01
20696;BME280;10507;52.754;13.040;2023-04-27T05:00:44;101286.78;;;5.91;90.25
20696;BME280;10507;52.754;13.040;2023-04-27T05:03:12;101324.50;;;6.05;91.00
20696;BME280;10507;52.754;13.040;2023-04-27T05:05:41;101393.69;;;6.36;90.52
20696;BME280;10507;52.754;13.040;2023-04-27T05:08:11;101483.03;;;7.18;89.62
20696;BME280;10507;52.754;13.040;2023-04-27T05:10:48;101434.97;;;8.01;86.58
20696;BME280;10507;52.754;13.040;2023-04-27T05:13:16;101264.81;;;8.29;85.06
20696;BME280;10507;52.754;13.040;2023-04-27T05:15:44;101187.59;;;8.59;82.75
20696;BME280;10507;52.754;13.040;2023-04-27T05:18:13;100968.03;;;8.20;81.26
20696;BME280;10507;52.754;13.040;2023-04-27T05:20:41;101032.84;;;8.18;81.19
20696;BME280;10507;52.754;13.040;2023-04-27T05:23:10;100950.44;;;7.91;81.01
20696;BME280;10507;52.754;13.040;2023-04-27T05:25:38;101043.59;;;8.15;81.34
20696;BME280;10507;52.754;13.040;2023-04-27T05:28:12;101115.59;;;8.63;80.41
20696;BME280;10507;52.754;13.040;2023-04-27T05:30:42;101142.44;;;9.07;80.42
20696;BME280;10507;52.754;13.040;2023-04-27T05:33:21;101010.16;;;9.30;77.96
20696;BME280;10507;52.754;13.040;2023-04-27T05:35:53;100932.19;;;9.03;77.98
20696;BME280;10507;52.754;13.040;2023-04-27T05:38:30;101030.94;;;9.22;77.65
20696;BME280;10507;52.754;13.040;2023-04-27T05:41:00;101161.59;;;10.35;76.26
20696;BME280;10507;52.754;13.040;2023-04-27T05:43:38;101168.69;;;11.40;73.05
20696;BME280;10507;52.754;13.040;2023-04-27T05:46:07;101083.72;;;12.21;70.61
20696;BME280;10507;52.754;13.040;2023-04-27T05:48:42;101038.34;;;12.87;68.85
20696;BME280;10507;52.754;13.040;2023-04-27T05:51:10;100747.06;;;12.58;67.18
20696;BME280;10507;52.754;13.040;2023-04-27T05:53:38;100645.00;;;11.83;67.99
20696;BME280;10507;52.754;13.040;2023-04-27T05:56:07;100729.69;;;11.84;69.31
20696;BME280;10507;52.754;13.040;2023-04-27T05:58:38;100849.22;;;12.34;68.59
20696;BME280;10507;52.754;13.040;2023-04-27T06:01:07;100971.75;;;13.29;66.91
20696;BME280;10507;52.754;13.040;2023-04-27T06:03:49;100710.88;;;13.11;65.16
20696;BME280;10507;52.754;13.040;2023-04-27T06:06:17;100597.56;;;12.48;66.19
20696;BME280;10507;52.754;13.040;2023-04-27T06:08:45;100796.25;;;13.19;65.70
20696;BME280;10507;52.754;13.040;2023-04-27T06:11:15;100832.22;;;13.30;65.62
20696;BME280;10507;52.754;13.040;2023-04-27T06:13:45;100928.78;;;14.07;64.15
20696;BME280;10507;52.754;13.040;2023-04-27T06:16:13;100666.84;;;13.88;63.20
20696;BME280;10507;52.754;13.040;2023-04-27T06:18:41;100617.56;;;13.89;63.14
20696;BME280;10507;52.754;13.040;2023-04-27T06:21:10;100785.00;;;15.00;61.85
20696;BME280;10507;52.754;13.040;2023-04-27T06:23:38;100721.81;;;14.93;61.62
20696;BME280;10507;52.754;13.040;2023-04-27T06:26:08;100398.91;;;13.95;61.73
20696;BME280;10507;52.754;13.040;2023-04-27T06:28:37;100672.16;;;14.59;61.35
20696;BME280;10507;52.754;13.040;2023-04-27T06:31:06;100606.22;;;14.26;62.05
20696;BME280;10507;52.754;13.040;2023-04-27T06:33:34;100550.75;;;14.12;62.55
20696;BME280;10507;52.754;13.040;2023-04-27T06:36:03;100749.91;;;14.89;61.72
20696;BME280;10507;52.754;13.040;2023-04-27T06:38:31;100562.22;;;14.55;61.55
20696;BME280;10507;52.754;13.040;2023-04-27T06:40:59;100651.91;;;14.93;60.86
20696;BME280;10507;52.754;13.040;2023-04-27T06:43:28;100522.78;;;14.69;61.17
20696;BME280;10507;52.754;13.040;2023-04-27T06:45:57;100386.66;;;14.29;60.51
20696;BME280;10507;52.754;13.040;2023-04-27T06:48:26;100408.34;;;13.88;61.63
20696;BME280;10507;52.754;13.040;2023-04-27T06:50:54;100354.88;;;13.98;60.77
20696;BME280;10507;52.754;13.040;2023-04-27T06:53:22;100308.91;;;13.77;61.00
20696;BME280;10507;52.754;13.040;2023-04-27T06:55:50;100553.50;;;13.98;63.10
20696;BME280;10507;52.754;13.040;2023-04-27T06:58:18;100665.28;;;15.07;59.86
20696;BME280;10507;52.754;13.040;2023-04-27T07:00:47;100429.22;;;14.23;60.67
20696;BME280;10507;52.754;13.040;2023-04-27T07:03:16;100215.75;;;13.66;60.21
20696;BME280;10507;52.754;13.040;2023-04-27T07:05:46;100442.97;;;14.31;59.93
20696;BME280;10507;52.754;13.040;2023-04-27T07:08:19;100516.88;;;14.37;60.66
20696;BME280;10507;52.754;13.040;2023-04-27T07:10:48;100428.81;;;14.54;59.75
20696;BME280;10507;52.754;13.040;2023-04-27T07:13:19;100395.03;;;14.50;58.94
20696;BME280;10507;52.754;13.040;2023-04-27T07:15:47;100252.91;;;14.60;58.07
20696;BME280;10507;52.754;13.040;2023-04-27T07:18:22;100580.84;;;15.35;58.87
20696;BME280;10507;52.754;13.040;2023-04-27T07:20:51;100403.13;;;15.13;57.68
20696;BME280;10507;52.754;13.040;2023-04-27T07:23:19;100258.28;;;14.60;58.18
20696;BME280;10507;52.754;13.040;2023-04-27T07:25:50;100450.63;;;14.88;58.77
20696;BME280;10507;52.754;13.040;2023-04-27T07:28:19;100408.66;;;15.35;56.82
20696;BME280;10507;52.754;13.040;2023-04-27T07:30:50;100456.38;;;15.57;56.58
20696;BME280;10507;52.754;13.040;2023-04-27T07:33:18;100502.97;;;15.71;56.39
20696;BME280;10507;52.754;13.040;2023-04-27T07:35:47;100496.34;;;15.88;56.19
20696;BME280;10507;52.754;13.040;2023-04-27T07:38:19;100467.53;;;16.01;56.07
20696;BME280;10507;52.754;13.040;2023-04-27T07:40:47;100592.63;;;16.56;56.24
20696;BME280;10507;52.754;13.040;2023-04-27T07:43:16;100422.81;;;16.45;54.70
20696;BME280;10507;52.754;13.040;2023-04-27T07:45:44;100523.59;;;16.78;54.59
20696;BME280;10507;52.754;13.040;2023-04-27T07:48:12;100334.72;;;16.23;55.14
20696;BME280;10507;52.754;13.040;2023-04-27T07:50:40;99847.56;;;14.89;54.36
20696;BME280;10507;52.754;13.040;2023-04-27T07:53:08;99974.13;;;13.80;58.56
20696;BME280;10507;52.754;13.040;2023-04-27T07:55:38;100270.06;;;13.95;60.38
20696;BME280;10507;52.754;13.040;2023-04-27T07:58:07;100186.09;;;13.93;58.71
20696;BME280;10507;52.754;13.040;2023-04-27T08:00:38;100315.88;;;14.43;58.45
20696;BME280;10507;52.754;13.040;2023-04-27T08:03:06;100235.22;;;14.19;58.33
20696;BME280;10507;52.754;13.040;2023-04-27T08:05:35;100388.50;;;14.42;59.87
20696;BME280;10507;52.754;13.040;2023-04-27T08:08:04;100409.69;;;14.72;59.24
20696;BME280;10507;52.754;13.040;2023-04-27T08:10:32;100062.13;;;13.88;58.55
20696;BME280;10507;52.754;13.040;2023-04-27T08:13:02;99961.25;;;12.73;60.25
20696;BME280;10507;52.754;13.040;2023-04-27T08:15:30;100040.81;;;12.05;62.99
20696;BME280;10507;52.754;13.040;2023-04-27T08:17:58;100369.88;;;12.79;64.04
20696;BME280;10507;52.754;13.040;2023-04-27T08:20:26;100325.16;;;12.94;62.51
20696;BME280;10507;52.754;13.040;2023-04-27T08:22:54;100115.56;;;12.76;61.10
20696;BME280;10507;52.754;13.040;2023-04-27T08:25:25;100222.38;;;12.53;62.37
20696;BME280;10507;52.754;13.040;2023-04-27T08:27:53;100023.84;;;12.19;59.70
20696;BME280;10507;52.754;13.040;2023-04-27T08:30:22;100152.19;;;12.62;60.26
20696;BME280;10507;52.754;13.040;2023-04-27T08:32:55;100160.13;;;12.77;59.25
20696;BME280;10507;52.754;13.040;2023-04-27T08:35:23;100010.31;;;12.48;59.55
20696;BME280;10507;52.754;13.040;2023-04-27T08:37:51;100197.13;;;12.57;61.36
20696;BME280;10507;52.754;13.040;2023-04-27T08:40:20;100233.00;;;12.55;61.68
20696;BME280;10507;52.754;13.040;2023-04-27T08:42:54;100092.72;;;12.30;61.07
20696;BME280;10507;52.754;13.040;2023-04-27T08:45:25;100130.03;;;12.19;61.31
20696;BME280;10507;52.754;13.040;2023-04-27T08:47:54;99836.28;;;11.57;60.36
20696;BME280;10507;52.754;13.040;2023-04-27T08:50:22;99873.63;;;11.31;60.39
20696;BME280;10507;52.754;13.040;2023-04-27T08:52:50;99835.69;;;11.12;60.48
20696;BME280;10507;52.754;13.040;2023-04-27T08:55:19;100227.50;;;11.72;63.02
20696;BME280;10507;52.754;13.040;2023-04-27T08:57:55;100187.88;;;11.93;62.04
20696;BME280;10507;52.754;13.040;2023-04-27T09:00:36;100225.72;;;12.01;61.65
20696;BME280;10507;52.754;13.040;2023-04-27T09:03:04;100364.53;;;12.36;62.40
20696;BME280;10507;52.754;13.040;2023-04-27T09:05:35;100373.22;;;12.54;62.55
20696;BME280;10507;52.754;13.040;2023-04-27T09:08:22;100126.91;;;12.39;60.19
20696;BME280;10507;52.754;13.040;2023-04-27T09:10:50;100433.00;;;12.83;62.43
20696;BME280;10507;52.754;13.040;2023-04-27T09:13:19;100550.75;;;13.29;62.04
20696;BME280;10507;52.754;13.040;2023-04-27T09:15:50;100442.50;;;13.44;60.04
20696;BME280;10507;52.754;13.040;2023-04-27T09:18:20;100081.47;;;12.78;59.82
20696;BME280;10507;52.754;13.040;2023-04-27T09:20:49;100099.13;;;12.27;60.97
20696;BME280;10507;52.754;13.040;2023-04-27T09:23:25;100026.28;;;11.68;62.25
20696;BME280;10507;52.754;13.040;2023-04-27T09:25:54;100135.22;;;11.79;62.06
20696;BME280;10507;52.754;13.040;2023-04-27T09:28:23;100257.06;;;12.27;61.12
20696;BME280;10507;52.754;13.040;2023-04-27T09:30:55;100261.69;;;12.53;60.64
20696;BME280;10507;52.754;13.040;2023-04-27T09:33:25;100212.66;;;12.52;60.94
20696;BME280;10507;52.754;13.040;2023-04-27T09:35:54;100298.44;;;12.51;62.17
20696;BME280;10507;52.754;13.040;2023-04-27T09:38:23;100237.06;;;12.47;61.11
20696;BME280;10507;52.754;13.040;2023-04-27T09:40:52;100048.66;;;12.09;60.34
20696;BME280;10507;52.754;13.040;2023-04-27T09:43:21;99988.28;;;12.04;59.73
20696;BME280;10507;52.754;13.040;2023-04-27T09:45:50;99886.06;;;11.45;60.52
20696;BME280;10507;52.754;13.040;2023-04-27T09:48:25;99982.72;;;11.24;61.66
20696;BME280;10507;52.754;13.040;2023-04-27T09:50:53;100003.38;;;11.08;62.74
20696;BME280;10507;52.754;13.040;2023-04-27T09:53:25;100130.19;;;11.31;63.68
20696;BME280;10507;52.754;13.040;2023-04-27T09:56:09;100264.75;;;11.75;62.95
20696;BME280;10507;52.754;13.040;2023-04-27T09:59:01;100393.38;;;12.16;63.54
20696;BME280;10507;52.754;13.040;2023-04-27T10:01:38;100366.25;;;12.51;62.22
20696;BME280;10507;52.754;13.040;2023-04-27T10:04:20;100528.41;;;13.00;63.02
20696;BME280;10507;52.754;13.040;2023-04-27T10:06:59;100357.28;;;13.35;59.24
20696;BME280;10507;52.754;13.040;2023-04-27T10:09:35;100389.31;;;13.51;59.63
20696;BME280;10507;52.754;13.040;2023-04-27T10:12:14;100420.84;;;13.75;59.47
20696;BME280;10507;52.754;13.040;2023-04-27T10:14:53;100323.81;;;13.68;58.79
20696;BME280;10507;52.754;13.040;2023-04-27T10:17:24;100325.88;;;14.03;57.68
20696;BME280;10507;52.754;13.040;2023-04-27T10:19:56;100378.50;;;14.05;58.65
20696;BME280;10507;52.754;13.040;2023-04-27T10:22:36;100340.25;;;14.27;57.87
20696;BME280;10507;52.754;13.040;2023-04-27T10:25:13;100208.31;;;13.82;58.44
20696;BME280;10507;52.754;13.040;2023-04-27T10:27:47;100274.16;;;13.88;58.48
20696;BME280;10507;52.754;13.040;2023-04-27T10:30:17;100247.91;;;13.79;58.13
20696;BME280;10507;52.754;13.040;2023-04-27T10:32:50;99901.88;;;12.92;57.37
20696;BME280;10507;52.754;13.040;2023-04-27T10:35:32;99939.63;;;12.51;59.01
20696;BME280;10507;52.754;13.040;2023-04-27T10:38:07;99994.97;;;12.24;60.43
20696;BME280;10507;52.754;13.040;2023-04-27T10:40:36;100054.97;;;12.47;59.78
20696;BME280;10507;52.754;13.040;2023-04-27T10:43:08;100040.50;;;12.10;61.52
20696;BME280;10507;52.754;13.040;2023-04-27T10:45:36;100051.97;;;12.12;60.54
20696;BME280;10507;52.754;13.040;2023-04-27T10:48:05;100120.47;;;12.15;61.23
20696;BME280;10507;52.754;13.040;2023-04-27T10:50:36;100139.19;;;12.29;61.02
20696;BME280;10507;52.754;13.040;2023-04-27T10:53:06;99947.69;;;11.98;60.07
20696;BME280;10507;52.754;13.040;2023-04-27T10:55:34;100061.75;;;11.99;61.38
20696;BME280;10507;52.754;13.040;2023-04-27T10:58:04;100207.19;;;12.26;61.93
20696;BME280;10507;52.754;13.040;2023-04-27T11:00:34;100133.25;;;12.24;60.63
20696;BME280;10507;52.754;13.040;2023-04-27T11:03:12;100037.97;;;11.94;61.21
20696;BME280;10507;52.754;13.040;2023-04-27T11:05:47;100103.78;;;12.11;61.37
20696;BME280;10507;52.754;13.040;2023-04-27T11:08:17;100103.47;;;12.16;61.02
20696;BME280;10507;52.754;13.040;2023-04-27T11:10:47;100181.06;;;12.30;60.75
20696;BME280;10507;52.754;13.040;2023-04-27T11:13:18;100043.84;;;12.14;59.43
20696;BME280;10507;52.754;13.040;2023-04-27T11:15:47;100156.25;;;12.41;60.29
20696;BME280;10507;52.754;13.040;2023-04-27T11:18:18;100299.94;;;12.69;60.48
20696;BME280;10507;52.754;13.040;2023-04-27T11:20:50;100422.34;;;13.10;61.19
20696;BME280;10507;52.754;13.040;2023-04-27T11:23:22;100438.00;;;13.45;59.65
20696;BME280;10507;52.754;13.040;2023-04-27T11:25:51;100236.22;;;13.41;58.27
20696;BME280;10507;52.754;13.040;2023-04-27T11:28:20;100031.97;;;13.22;56.15
20696;BME280;10507;52.754;13.040;2023-04-27T11:30:55;99951.38;;;13.12;55.00
20696;BME280;10507;52.754;13.040;2023-04-27T11:33:23;100102.41;;;13.11;57.37
20696;BME280;10507;52.754;13.040;2023-04-27T11:35:53;100125.59;;;13.12;58.10
20696;BME280;10507;52.754;13.040;2023-04-27T11:38:22;100164.09;;;13.24;57.33
20696;BME280;10507;52.754;13.040;2023-04-27T11:41:04;99911.47;;;12.58;57.84
20696;BME280;10507;52.754;13.040;2023-04-27T11:43:39;99946.38;;;12.69;56.43
20696;BME280;10507;52.754;13.040;2023-04-27T11:46:08;100139.06;;;12.85;59.20
20696;BME280;10507;52.754;13.040;2023-04-27T11:48:38;100099.41;;;12.90;58.13
20696;BME280;10507;52.754;13.040;2023-04-27T11:51:09;100059.31;;;12.88;57.54
20696;BME280;10507;52.754;13.040;2023-04-27T11:53:46;99760.88;;;12.41;56.03
20696;BME280;10507;52.754;13.040;2023-04-27T11:56:16;100023.28;;;12.80;56.99
20696;BME280;10507;52.754;13.040;2023-04-27T11:58:46;100083.53;;;13.00;57.40
20696;BME280;10507;52.754;13.040;2023-04-27T12:01:14;100084.38;;;13.00;57.08
20696;BME280;10507;52.754;13.040;2023-04-27T12:04:00;99921.72;;;12.64;56.82
20696;BME280;10507;52.754;13.040;2023-04-27T12:06:30;99926.88;;;12.67;55.94
20696;BME280;10507;52.754;13.040;2023-04-27T12:09:01;100075.09;;;13.06;56.79
20696;BME280;10507;52.754;13.040;2023-04-27T12:11:31;100146.88;;;13.28;56.73
20696;BME280;10507;52.754;13.040;2023-04-27T12:14:02;100157.03;;;13.36;56.85
20696;BME280;10507;52.754;13.040;2023-04-27T12:16:32;100170.66;;;13.58;56.47
20696;BME280;10507;52.754;13.040;2023-04-27T12:19:01;100060.75;;;13.33;56.20
20696;BME280;10507;52.754;13.040;2023-04-27T12:21:31;100085.63;;;13.35;56.43
20696;BME280;10507;52.754;13.040;2023-04-27T12:24:01;99939.34;;;13.18;55.47
20696;BME280;10507;52.754;13.040;2023-04-27T12:26:29;100040.88;;;13.22;56.57
20696;BME280;10507;52.754;13.040;2023-04-27T12:28:59;100010.84;;;13.17;57.01
20696;BME280;10507;52.754;13.040;2023-04-27T12:31:28;99941.41;;;13.01;56.04
20696;BME280;10507;52.754;13.040;2023-04-27T12:33:57;99974.00;;;12.82;57.49
20696;BME280;10507;52.754;13.040;2023-04-27T12:36:26;100054.50;;;13.06;57.18
20696;BME280;10507;52.754;13.040;2023-04-27T12:38:57;100171.03;;;13.14;58.67
20696;BME280;10507;52.754;13.040;2023-04-27T12:41:27;100036.28;;;12.99;57.65
20696;BME280;10507;52.754;13.040;2023-04-27T12:43:55;99989.13;;;12.83;56.87
20696;BME280;10507;52.754;13.040;2023-04-27T12:46:25;100088.78;;;12.88;58.50
20696;BME280;10507;52.754;13.040;2023-04-27T12:48:53;99960.72;;;12.68;57.55
20696;BME280;10507;52.754;13.040;2023-04-27T12:51:22;100040.66;;;12.74;58.17
20696;BME280;10507;52.754;13.040;2023-04-27T12:53:54;100080.53;;;12.79;58.53
20696;BME280;10507;52.754;13.040;2023-04-27T12:56:27;100010.22;;;12.75;57.57
20696;BME280;10507;52.754;13.040;2023-04-27T12:58:56;100023.75;;;12.74;56.92
20696;BME280;10507;52.754;13.040;2023-04-27T13:01:26;100027.91;;;12.90;56.79
20696;BME280;10507;52.754;13.040;2023-04-27T13:03:57;99987.94;;;12.87;56.30